sensor_id;sensor_type;location;lat;lon;timestamp;P1;durP1;ratioP1;P2;durP2;ratioP2
67979;SDS011;54760;47.490;19.030;2023-04-15T00:00:03;4.68;;;3.70;;
67979;SDS011;54760;47.490;19.030;2023-04-15T00:02:29;6.25;;;4.40;;
67979;SDS011;54760;47.490;19.030;2023-04-15T00:04:55;4.65;;;4.05;;
67979;SDS011;54760;47.490;19.030;2023-04-15T00:07:20;5.45;;;3.72;;
67979;SDS011;54760;47.490;19.030;2023-04-15T00:09:46;5.70;;;3.80;;
67979;SDS011;54760;47.490;19.030;2023-04-15T00:12:11;5.87;;;3.80;;
67979;SDS011;54760;47.490;19.030;2023-04-15T00:14:37;4.97;;;3.90;;
67979;SDS011;54760;47.490;19.030;2023-04-15T00:17:03;5.20;;;3.62;;
67979;SDS011;54760;47.490;19.030;2023-04-15T00:19:28;4.03;;;3.33;;
67979;SDS011;54760;47.490;19.030;2023-04-15T00:21:54;4.50;;;3.60;;
67979;SDS011;54760;47.490;19.030;2023-04-15T00:24:20;3.87;;;3.20;;
67979;SDS011;54760;47.490;19.030;2023-04-15T00:26:46;4.57;;;3.60;;
67979;SDS011;54760;47.490;19.030;2023-04-15T00:29:11;5.40;;;3.50;;
67979;SDS011;54760;47.490;19.030;2023-04-15T00:31:37;4.18;;;3.30;;
67979;SDS011;54760;47.490;19.030;2023-04-15T00:34:02;3.80;;;3.28;;
67979;SDS011;54760;47.490;19.030;2023-04-15T00:36:28;4.68;;;3.37;;
67979;SDS011;54760;47.490;19.030;2023-04-15T00:38:54;5.85;;;3.72;;
67979;SDS011;54760;47.490;19.030;2023-04-15T00:41:19;7.35;;;4.68;;
67979;SDS011;54760;47.490;19.030;2023-04-15T00:43:45;5.00;;;4.37;;
67979;SDS011;54760;47.490;19.030;2023-04-15T00:46:11;5.45;;;4.03;;
67979;SDS011;54760;47.490;19.030;2023-04-15T00:48:40;5.45;;;4.30;;
67979;SDS011;54760;47.490;19.030;2023-04-15T00:51:06;5.32;;;4.35;;
67979;SDS011;54760;47.490;19.030;2023-04-15T00:53:32;5.68;;;4.25;;
67979;SDS011;54760;47.490;19.030;2023-04-15T00:55:57;5.65;;;4.82;;
67979;SDS011;54760;47.490;19.030;2023-04-15T00:58:23;6.20;;;4.43;;
67979;SDS011;54760;47.490;19.030;2023-04-15T01:00:49;5.32;;;4.50;;
67979;SDS011;54760;47.490;19.030;2023-04-15T01:03:18;5.32;;;4.62;;
67979;SDS011;54760;47.490;19.030;2023-04-15T01:05:44;5.95;;;4.97;;
67979;SDS011;54760;47.490;19.030;2023-04-15T01:08:10;7.55;;;4.87;;
67979;SDS011;54760;47.490;19.030;2023-04-15T01:10:36;8.35;;;6.45;;
67979;SDS011;54760;47.490;19.030;2023-04-15T01:13:02;7.53;;;5.25;;
67979;SDS011;54760;47.490;19.030;2023-04-15T01:15:28;7.25;;;5.37;;
67979;SDS011;54760;47.490;19.030;2023-04-15T01:17:53;8.07;;;6.37;;
67979;SDS011;54760;47.490;19.030;2023-04-15T01:20:19;6.97;;;5.40;;
67979;SDS011;54760;47.490;19.030;2023-04-15T01:22:46;7.12;;;5.60;;
67979;SDS011;54760;47.490;19.030;2023-04-15T01:25:14;7.53;;;5.95;;
67979;SDS011;54760;47.490;19.030;2023-04-15T01:27:43;8.15;;;5.40;;
67979;SDS011;54760;47.490;19.030;2023-04-15T01:30:09;6.32;;;5.35;;
67979;SDS011;54760;47.490;19.030;2023-04-15T01:32:35;6.78;;;5.32;;
67979;SDS011;54760;47.490;19.030;2023-04-15T01:35:01;7.28;;;5.20;;
67979;SDS011;54760;47.490;19.030;2023-04-15T01:37:26;6.40;;;5.05;;
67979;SDS011;54760;47.490;19.030;2023-04-15T01:39:53;6.60;;;5.50;;
67979;SDS011;54760;47.490;19.030;2023-04-15T01:42:20;6.12;;;5.37;;
67979;SDS011;54760;47.490;19.030;2023-04-15T01:44:46;8.05;;;5.78;;
67979;SDS011;54760;47.490;19.030;2023-04-15T01:47:11;6.78;;;5.32;;
67979;SDS011;54760;47.490;19.030;2023-04-15T01:49:37;6.43;;;5.40;;
67979;SDS011;54760;47.490;19.030;2023-04-15T01:52:02;6.53;;;5.07;;
67979;SDS011;54760;47.490;19.030;2023-04-15T01:54:28;6.70;;;5.22;;
67979;SDS011;54760;47.490;19.030;2023-04-15T01:56:53;6.62;;;5.15;;
67979;SDS011;54760;47.490;19.030;2023-04-15T01:59:19;6.78;;;5.40;;
67979;SDS011;54760;47.490;19.030;2023-04-15T02:01:44;6.80;;;5.15;;
67979;SDS011;54760;47.490;19.030;2023-04-15T02:04:10;6.55;;;5.20;;
67979;SDS011;54760;47.490;19.030;2023-04-15T02:06:44;7.22;;;5.47;;
67979;SDS011;54760;47.490;19.030;2023-04-15T02:09:10;7.22;;;5.43;;
67979;SDS011;54760;47.490;19.030;2023-04-15T02:11:35;7.07;;;5.70;;
67979;SDS011;54760;47.490;19.030;2023-04-15T02:14:03;7.10;;;5.68;;
67979;SDS011;54760;47.490;19.030;2023-04-15T02:16:30;6.47;;;5.22;;
67979;SDS011;54760;47.490;19.030;2023-04-15T02:18:56;6.60;;;4.97;;
67979;SDS011;54760;47.490;19.030;2023-04-15T02:21:22;6.50;;;5.03;;
67979;SDS011;54760;47.490;19.030;2023-04-15T02:23:47;7.70;;;5.55;;
67979;SDS011;54760;47.490;19.030;2023-04-15T02:26:13;6.10;;;5.20;;
67979;SDS011;54760;47.490;19.030;2023-04-15T02:28:38;6.87;;;5.82;;
67979;SDS011;54760;47.490;19.030;2023-04-15T02:31:04;7.55;;;5.55;;
67979;SDS011;54760;47.490;19.030;2023-04-15T02:33:30;5.90;;;5.20;;
67979;SDS011;54760;47.490;19.030;2023-04-15T02:35:56;8.25;;;6.62;;
67979;SDS011;54760;47.490;19.030;2023-04-15T02:38:21;7.65;;;6.10;;
67979;SDS011;54760;47.490;19.030;2023-04-15T02:40:47;7.28;;;5.95;;
67979;SDS011;54760;47.490;19.030;2023-04-15T02:43:14;9.15;;;6.10;;
67979;SDS011;54760;47.490;19.030;2023-04-15T02:45:41;7.90;;;6.40;;
67979;SDS011;54760;47.490;19.030;2023-04-15T02:48:07;7.72;;;6.37;;
67979;SDS011;54760;47.490;19.030;2023-04-15T02:50:33;9.07;;;6.80;;
67979;SDS011;54760;47.490;19.030;2023-04-15T02:52:59;8.57;;;6.37;;
67979;SDS011;54760;47.490;19.030;2023-04-15T02:55:25;8.52;;;6.45;;
67979;SDS011;54760;47.490;19.030;2023-04-15T02:57:51;8.85;;;6.40;;
67979;SDS011;54760;47.490;19.030;2023-04-15T03:00:16;7.03;;;5.35;;
67979;SDS011;54760;47.490;19.030;2023-04-15T03:02:42;8.73;;;5.45;;
67979;SDS011;54760;47.490;19.030;2023-04-15T03:05:12;7.00;;;5.57;;
67979;SDS011;54760;47.490;19.030;2023-04-15T03:07:38;8.30;;;5.97;;
67979;SDS011;54760;47.490;19.030;2023-04-15T03:10:05;9.05;;;5.62;;
67979;SDS011;54760;47.490;19.030;2023-04-15T03:12:31;5.85;;;4.80;;
67979;SDS011;54760;47.490;19.030;2023-04-15T03:14:57;8.27;;;4.75;;
67979;SDS011;54760;47.490;19.030;2023-04-15T03:17:22;7.65;;;5.40;;
67979;SDS011;54760;47.490;19.030;2023-04-15T03:19:47;6.07;;;4.90;;
67979;SDS011;54760;47.490;19.030;2023-04-15T03:22:13;6.20;;;4.95;;
67979;SDS011;54760;47.490;19.030;2023-04-15T03:24:38;5.85;;;4.90;;
67979;SDS011;54760;47.490;19.030;2023-04-15T03:27:04;6.65;;;4.97;;
67979;SDS011;54760;47.490;19.030;2023-04-15T03:29:30;6.15;;;4.50;;
67979;SDS011;54760;47.490;19.030;2023-04-15T03:31:55;7.05;;;4.35;;
67979;SDS011;54760;47.490;19.030;2023-04-15T03:34:21;8.35;;;5.30;;
67979;SDS011;54760;47.490;19.030;2023-04-15T03:36:46;6.45;;;4.47;;
67979;SDS011;54760;47.490;19.030;2023-04-15T03:39:12;7.03;;;4.37;;
67979;SDS011;54760;47.490;19.030;2023-04-15T03:41:37;7.10;;;5.10;;
67979;SDS011;54760;47.490;19.030;2023-04-15T03:44:03;6.37;;;5.20;;
67979;SDS011;54760;47.490;19.030;2023-04-15T03:46:28;7.15;;;5.47;;
67979;SDS011;54760;47.490;19.030;2023-04-15T03:48:54;6.37;;;5.28;;
67979;SDS011;54760;47.490;19.030;2023-04-15T03:51:19;5.95;;;4.47;;
67979;SDS011;54760;47.490;19.030;2023-04-15T03:53:44;5.97;;;4.87;;
67979;SDS011;54760;47.490;19.030;2023-04-15T03:56:10;7.07;;;5.05;;
67979;SDS011;54760;47.490;19.030;2023-04-15T03:58:35;6.25;;;5.15;;
67979;SDS011;54760;47.490;19.030;2023-04-15T04:01:01;8.30;;;4.97;;
67979;SDS011;54760;47.490;19.030;2023-04-15T04:03:26;5.87;;;4.78;;
67979;SDS011;54760;47.490;19.030;2023-04-15T04:05:52;7.05;;;5.00;;
67979;SDS011;54760;47.490;19.030;2023-04-15T04:08:17;6.50;;;4.53;;
67979;SDS011;54760;47.490;19.030;2023-04-15T04:10:43;5.57;;;4.07;;
67979;SDS011;54760;47.490;19.030;2023-04-15T04:13:09;7.10;;;4.57;;
67979;SDS011;54760;47.490;19.030;2023-04-15T04:15:34;6.35;;;4.12;;
67979;SDS011;54760;47.490;19.030;2023-04-15T04:18:00;5.43;;;4.18;;
67979;SDS011;54760;47.490;19.030;2023-04-15T04:20:25;5.78;;;4.22;;
67979;SDS011;54760;47.490;19.030;2023-04-15T04:22:51;6.12;;;4.37;;
67979;SDS011;54760;47.490;19.030;2023-04-15T04:25:16;6.78;;;4.45;;
67979;SDS011;54760;47.490;19.030;2023-04-15T04:27:41;4.90;;;4.40;;
67979;SDS011;54760;47.490;19.030;2023-04-15T04:30:07;6.10;;;4.60;;
67979;SDS011;54760;47.490;19.030;2023-04-15T04:32:33;5.55;;;4.60;;
67979;SDS011;54760;47.490;19.030;2023-04-15T04:34:58;5.60;;;4.40;;
67979;SDS011;54760;47.490;19.030;2023-04-15T04:37:23;5.18;;;4.10;;
67979;SDS011;54760;47.490;19.030;2023-04-15T04:39:49;5.32;;;4.45;;
67979;SDS011;54760;47.490;19.030;2023-04-15T04:42:15;5.03;;;3.97;;
67979;SDS011;54760;47.490;19.030;2023-04-15T04:44:40;5.90;;;4.45;;
67979;SDS011;54760;47.490;19.030;2023-04-15T04:47:06;5.25;;;4.20;;
67979;SDS011;54760;47.490;19.030;2023-04-15T04:49:31;5.85;;;4.20;;
67979;SDS011;54760;47.490;19.030;2023-04-15T04:51:57;6.47;;;4.40;;
67979;SDS011;54760;47.490;19.030;2023-04-15T04:54:24;5.47;;;4.10;;
67979;SDS011;54760;47.490;19.030;2023-04-15T04:56:50;7.05;;;4.07;;
67979;SDS011;54760;47.490;19.030;2023-04-15T04:59:15;7.40;;;4.12;;
67979;SDS011;54760;47.490;19.030;2023-04-15T05:01:41;5.55;;;4.18;;
67979;SDS011;54760;47.490;19.030;2023-04-15T05:04:07;7.65;;;4.50;;
67979;SDS011;54760;47.490;19.030;2023-04-15T05:06:32;5.00;;;4.00;;
67979;SDS011;54760;47.490;19.030;2023-04-15T05:08:58;6.18;;;3.78;;
67979;SDS011;54760;47.490;19.030;2023-04-15T05:11:23;5.05;;;3.78;;
67979;SDS011;54760;47.490;19.030;2023-04-15T05:13:49;4.50;;;3.67;;
67979;SDS011;54760;47.490;19.030;2023-04-15T05:16:14;5.32;;;4.00;;
67979;SDS011;54760;47.490;19.030;2023-04-15T05:18:39;6.80;;;3.90;;
67979;SDS011;54760;47.490;19.030;2023-04-15T05:21:05;6.87;;;4.00;;
67979;SDS011;54760;47.490;19.030;2023-04-15T05:23:30;6.43;;;3.85;;
67979;SDS011;54760;47.490;19.030;2023-04-15T05:25:56;5.75;;;3.67;;
67979;SDS011;54760;47.490;19.030;2023-04-15T05:28:22;5.25;;;4.20;;
67979;SDS011;54760;47.490;19.030;2023-04-15T05:30:47;4.72;;;4.10;;
67979;SDS011;54760;47.490;19.030;2023-04-15T05:33:12;6.20;;;4.32;;
67979;SDS011;54760;47.490;19.030;2023-04-15T05:35:38;4.37;;;3.97;;
67979;SDS011;54760;47.490;19.030;2023-04-15T05:38:03;5.87;;;4.15;;
67979;SDS011;54760;47.490;19.030;2023-04-15T05:40:29;6.00;;;4.30;;
67979;SDS011;54760;47.490;19.030;2023-04-15T05:42:55;5.07;;;4.22;;
67979;SDS011;54760;47.490;19.030;2023-04-15T05:45:21;5.35;;;4.12;;
67979;SDS011;54760;47.490;19.030;2023-04-15T05:47:46;5.55;;;4.15;;
67979;SDS011;54760;47.490;19.030;2023-04-15T05:50:14;5.25;;;4.43;;
67979;SDS011;54760;47.490;19.030;2023-04-15T05:52:39;7.05;;;4.32;;
67979;SDS011;54760;47.490;19.030;2023-04-15T05:55:05;6.20;;;4.82;;
67979;SDS011;54760;47.490;19.030;2023-04-15T05:57:30;6.85;;;4.30;;
67979;SDS011;54760;47.490;19.030;2023-04-15T05:59:56;6.82;;;4.85;;
67979;SDS011;54760;47.490;19.030;2023-04-15T06:02:22;6.15;;;4.57;;
67979;SDS011;54760;47.490;19.030;2023-04-15T06:04:47;7.87;;;4.45;;
67979;SDS011;54760;47.490;19.030;2023-04-15T06:07:12;4.60;;;4.07;;
67979;SDS011;54760;47.490;19.030;2023-04-15T06:09:38;5.80;;;4.20;;
67979;SDS011;54760;47.490;19.030;2023-04-15T06:12:04;4.87;;;4.00;;
67979;SDS011;54760;47.490;19.030;2023-04-15T06:14:30;4.93;;;4.10;;
67979;SDS011;54760;47.490;19.030;2023-04-15T06:16:56;5.20;;;3.92;;
67979;SDS011;54760;47.490;19.030;2023-04-15T06:19:21;5.80;;;4.62;;
67979;SDS011;54760;47.490;19.030;2023-04-15T06:21:47;5.55;;;3.83;;
67979;SDS011;54760;47.490;19.030;2023-04-15T06:24:13;5.53;;;4.30;;
67979;SDS011;54760;47.490;19.030;2023-04-15T06:26:38;5.28;;;4.35;;
67979;SDS011;54760;47.490;19.030;2023-04-15T06:29:03;5.03;;;4.28;;
67979;SDS011;54760;47.490;19.030;2023-04-15T06:31:29;4.60;;;3.90;;
67979;SDS011;54760;47.490;19.030;2023-04-15T06:33:55;6.32;;;4.18;;
67979;SDS011;54760;47.490;19.030;2023-04-15T06:36:20;4.78;;;3.45;;
67979;SDS011;54760;47.490;19.030;2023-04-15T06:38:46;5.87;;;3.97;;
67979;SDS011;54760;47.490;19.030;2023-04-15T06:41:11;4.97;;;4.10;;
67979;SDS011;54760;47.490;19.030;2023-04-15T06:43:37;5.37;;;4.10;;
67979;SDS011;54760;47.490;19.030;2023-04-15T06:46:03;4.62;;;4.12;;
67979;SDS011;54760;47.490;19.030;2023-04-15T06:48:28;5.82;;;4.05;;
67979;SDS011;54760;47.490;19.030;2023-04-15T06:50:54;5.60;;;4.00;;
67979;SDS011;54760;47.490;19.030;2023-04-15T06:53:19;5.40;;;3.80;;
67979;SDS011;54760;47.490;19.030;2023-04-15T06:55:46;4.47;;;3.92;;
67979;SDS011;54760;47.490;19.030;2023-04-15T06:58:11;5.90;;;3.85;;
67979;SDS011;54760;47.490;19.030;2023-04-15T07:00:36;5.97;;;4.00;;
67979;SDS011;54760;47.490;19.030;2023-04-15T07:03:03;3.95;;;3.37;;
67979;SDS011;54760;47.490;19.030;2023-04-15T07:05:29;5.43;;;3.80;;
67979;SDS011;54760;47.490;19.030;2023-04-15T07:07:56;5.97;;;4.25;;
67979;SDS011;54760;47.490;19.030;2023-04-15T07:10:21;3.78;;;3.17;;
67979;SDS011;54760;47.490;19.030;2023-04-15T07:12:47;3.75;;;3.35;;
67979;SDS011;54760;47.490;19.030;2023-04-15T07:15:14;3.65;;;3.30;;
67979;SDS011;54760;47.490;19.030;2023-04-15T07:17:40;4.68;;;3.40;;
67979;SDS011;54760;47.490;19.030;2023-04-15T07:20:07;4.20;;;3.47;;
67979;SDS011;54760;47.490;19.030;2023-04-15T07:22:33;4.00;;;3.03;;
67979;SDS011;54760;47.490;19.030;2023-04-15T07:24:59;3.40;;;3.10;;
67979;SDS011;54760;47.490;19.030;2023-04-15T07:27:25;3.53;;;3.22;;
67979;SDS011;54760;47.490;19.030;2023-04-15T07:29:51;3.58;;;3.20;;
67979;SDS011;54760;47.490;19.030;2023-04-15T07:32:17;4.47;;;3.03;;
67979;SDS011;54760;47.490;19.030;2023-04-15T07:34:43;4.68;;;3.28;;
67979;SDS011;54760;47.490;19.030;2023-04-15T07:37:08;4.20;;;3.08;;
67979;SDS011;54760;47.490;19.030;2023-04-15T07:39:34;6.15;;;3.35;;
67979;SDS011;54760;47.490;19.030;2023-04-15T07:42:01;3.70;;;3.00;;
67979;SDS011;54760;47.490;19.030;2023-04-15T07:44:26;3.30;;;2.85;;
67979;SDS011;54760;47.490;19.030;2023-04-15T07:46:52;3.70;;;2.80;;
67979;SDS011;54760;47.490;19.030;2023-04-15T07:49:18;3.22;;;2.40;;
67979;SDS011;54760;47.490;19.030;2023-04-15T07:51:45;3.65;;;2.42;;
67979;SDS011;54760;47.490;19.030;2023-04-15T07:54:10;3.60;;;2.60;;
67979;SDS011;54760;47.490;19.030;2023-04-15T07:56:36;3.10;;;2.20;;
67979;SDS011;54760;47.490;19.030;2023-04-15T07:59:01;2.03;;;1.80;;
67979;SDS011;54760;47.490;19.030;2023-04-15T08:01:28;3.40;;;2.12;;
67979;SDS011;54760;47.490;19.030;2023-04-15T08:03:55;2.17;;;1.90;;
67979;SDS011;54760;47.490;19.030;2023-04-15T08:06:21;2.60;;;2.00;;
67979;SDS011;54760;47.490;19.030;2023-04-15T08:08:47;2.50;;;2.10;;
67979;SDS011;54760;47.490;19.030;2023-04-15T08:11:12;2.60;;;2.17;;
67979;SDS011;54760;47.490;19.030;2023-04-15T08:13:38;4.15;;;2.12;;
67979;SDS011;54760;47.490;19.030;2023-04-15T08:16:15;2.90;;;2.12;;
67979;SDS011;54760;47.490;19.030;2023-04-15T08:18:45;1.90;;;1.70;;
67979;SDS011;54760;47.490;19.030;2023-04-15T08:21:11;3.20;;;1.90;;
67979;SDS011;54760;47.490;19.030;2023-04-15T08:23:37;2.42;;;1.55;;
67979;SDS011;54760;47.490;19.030;2023-04-15T08:26:03;3.40;;;1.80;;
67979;SDS011;54760;47.490;19.030;2023-04-15T08:28:28;2.45;;;1.77;;
67979;SDS011;54760;47.490;19.030;2023-04-15T08:30:54;2.95;;;2.15;;
67979;SDS011;54760;47.490;19.030;2023-04-15T08:33:20;5.55;;;2.10;;
67979;SDS011;54760;47.490;19.030;2023-04-15T08:35:45;2.40;;;1.80;;
67979;SDS011;54760;47.490;19.030;2023-04-15T08:38:11;2.95;;;1.75;;
67979;SDS011;54760;47.490;19.030;2023-04-15T08:40:41;2.58;;;1.70;;
67979;SDS011;54760;47.490;19.030;2023-04-15T08:43:08;2.50;;;1.52;;
67979;SDS011;54760;47.490;19.030;2023-04-15T08:45:40;2.45;;;1.40;;
67979;SDS011;54760;47.490;19.030;2023-04-15T08:48:08;4.15;;;1.55;;
67979;SDS011;54760;47.490;19.030;2023-04-15T08:50:37;2.70;;;1.85;;
67979;SDS011;54760;47.490;19.030;2023-04-15T08:53:03;3.50;;;2.30;;
67979;SDS011;54760;47.490;19.030;2023-04-15T08:55:32;2.80;;;2.25;;
67979;SDS011;54760;47.490;19.030;2023-04-15T08:58:00;2.75;;;2.40;;
67979;SDS011;54760;47.490;19.030;2023-04-15T09:00:27;3.87;;;2.75;;
67979;SDS011;54760;47.490;19.030;2023-04-15T09:02:54;3.53;;;2.70;;
67979;SDS011;54760;47.490;19.030;2023-04-15T09:05:20;4.75;;;2.80;;
67979;SDS011;54760;47.490;19.030;2023-04-15T09:07:47;4.47;;;2.80;;
67979;SDS011;54760;47.490;19.030;2023-04-15T09:10:14;3.75;;;2.40;;
67979;SDS011;54760;47.490;19.030;2023-04-15T09:12:39;4.43;;;2.40;;
67979;SDS011;54760;47.490;19.030;2023-04-15T09:15:05;3.72;;;2.62;;
67979;SDS011;54760;47.490;19.030;2023-04-15T09:17:36;4.10;;;2.30;;
67979;SDS011;54760;47.490;19.030;2023-04-15T09:20:13;2.95;;;2.50;;
67979;SDS011;54760;47.490;19.030;2023-04-15T09:22:40;5.05;;;2.50;;
67979;SDS011;54760;47.490;19.030;2023-04-15T09:27:55;2.53;;;1.92;;
67979;SDS011;54760;47.490;19.030;2023-04-15T09:30:22;2.12;;;1.70;;
67979;SDS011;54760;47.490;19.030;2023-04-15T09:32:57;2.83;;;1.70;;
67979;SDS011;54760;47.490;19.030;2023-04-15T09:35:25;2.72;;;2.00;;
67979;SDS011;54760;47.490;19.030;2023-04-15T09:37:52;3.95;;;2.60;;
67979;SDS011;54760;47.490;19.030;2023-04-15T09:40:34;8.23;;;2.80;;
67979;SDS011;54760;47.490;19.030;2023-04-15T09:43:02;4.32;;;2.60;;
67979;SDS011;54760;47.490;19.030;2023-04-15T09:45:29;7.22;;;3.40;;
67979;SDS011;54760;47.490;19.030;2023-04-15T09:47:59;4.05;;;2.83;;
67979;SDS011;54760;47.490;19.030;2023-04-15T09:50:41;3.20;;;2.58;;
67979;SDS011;54760;47.490;19.030;2023-04-15T09:53:10;5.55;;;2.30;;
67979;SDS011;54760;47.490;19.030;2023-04-15T09:55:42;3.22;;;2.10;;
67979;SDS011;54760;47.490;19.030;2023-04-15T09:58:16;3.90;;;1.80;;
67979;SDS011;54760;47.490;19.030;2023-04-15T10:00:46;1.85;;;1.30;;
67979;SDS011;54760;47.490;19.030;2023-04-15T10:03:23;3.20;;;1.40;;
67979;SDS011;54760;47.490;19.030;2023-04-15T10:05:53;3.28;;;1.40;;
67979;SDS011;54760;47.490;19.030;2023-04-15T10:08:21;3.92;;;1.50;;
67979;SDS011;54760;47.490;19.030;2023-04-15T10:10:49;4.75;;;1.35;;
67979;SDS011;54760;47.490;19.030;2023-04-15T10:13:17;2.25;;;0.90;;
67979;SDS011;54760;47.490;19.030;2023-04-15T10:15:44;1.00;;;0.90;;
67979;SDS011;54760;47.490;19.030;2023-04-15T10:18:15;1.12;;;0.98;;
67979;SDS011;54760;47.490;19.030;2023-04-15T10:20:45;2.15;;;1.20;;
67979;SDS011;54760;47.490;19.030;2023-04-15T10:23:11;1.62;;;1.00;;
67979;SDS011;54760;47.490;19.030;2023-04-15T10:25:37;2.40;;;0.90;;
67979;SDS011;54760;47.490;19.030;2023-04-15T10:28:03;1.15;;;0.80;;
67979;SDS011;54760;47.490;19.030;2023-04-15T10:30:30;0.60;;;0.60;;
67979;SDS011;54760;47.490;19.030;2023-04-15T10:33:00;1.48;;;0.90;;
67979;SDS011;54760;47.490;19.030;2023-04-15T10:35:28;1.12;;;0.70;;
67979;SDS011;54760;47.490;19.030;2023-04-15T10:37:57;1.00;;;0.70;;
67979;SDS011;54760;47.490;19.030;2023-04-15T10:40:30;2.25;;;0.75;;
67979;SDS011;54760;47.490;19.030;2023-04-15T10:42:57;0.90;;;0.80;;
67979;SDS011;54760;47.490;19.030;2023-04-15T10:45:26;0.80;;;0.70;;
67979;SDS011;54760;47.490;19.030;2023-04-15T10:47:57;1.25;;;0.90;;
67979;SDS011;54760;47.490;19.030;2023-04-15T10:50:25;0.88;;;0.80;;
67979;SDS011;54760;47.490;19.030;2023-04-15T10:52:52;2.00;;;0.90;;
67979;SDS011;54760;47.490;19.030;2023-04-15T10:55:19;1.60;;;1.00;;
67979;SDS011;54760;47.490;19.030;2023-04-15T10:57:46;2.33;;;1.25;;
67979;SDS011;54760;47.490;19.030;2023-04-15T11:00:17;1.37;;;1.08;;
67979;SDS011;54760;47.490;19.030;2023-04-15T11:05:16;2.33;;;1.60;;
67979;SDS011;54760;47.490;19.030;2023-04-15T11:12:41;1.73;;;0.90;;
67979;SDS011;54760;47.490;19.030;2023-04-15T11:17:56;1.10;;;0.75;;
67979;SDS011;54760;47.490;19.030;2023-04-15T11:20:35;1.30;;;0.80;;
67979;SDS011;54760;47.490;19.030;2023-04-15T11:23:01;0.77;;;0.60;;
67979;SDS011;54760;47.490;19.030;2023-04-15T11:25:27;0.52;;;0.50;;
67979;SDS011;54760;47.490;19.030;2023-04-15T11:27:54;1.87;;;0.70;;
67979;SDS011;54760;47.490;19.030;2023-04-15T11:30:21;1.10;;;0.60;;
67979;SDS011;54760;47.490;19.030;2023-04-15T11:32:49;1.48;;;0.80;;
67979;SDS011;54760;47.490;19.030;2023-04-15T11:35:15;1.23;;;0.93;;
67979;SDS011;54760;47.490;19.030;2023-04-15T11:37:42;1.10;;;0.80;;
67979;SDS011;54760;47.490;19.030;2023-04-15T11:40:08;0.98;;;0.70;;
67979;SDS011;54760;47.490;19.030;2023-04-15T11:42:34;1.05;;;0.80;;
67979;SDS011;54760;47.490;19.030;2023-04-15T11:45:10;2.08;;;0.80;;
67979;SDS011;54760;47.490;19.030;2023-04-15T11:47:40;1.33;;;0.80;;
67979;SDS011;54760;47.490;19.030;2023-04-15T11:52:40;1.60;;;0.90;;
67979;SDS011;54760;47.490;19.030;2023-04-15T11:55:27;1.80;;;0.80;;
67979;SDS011;54760;47.490;19.030;2023-04-15T11:58:09;1.00;;;0.85;;
67979;SDS011;54760;47.490;19.030;2023-04-15T12:00:35;0.70;;;0.65;;
67979;SDS011;54760;47.490;19.030;2023-04-15T12:03:15;0.98;;;0.70;;
67979;SDS011;54760;47.490;19.030;2023-04-15T12:13:52;1.00;;;0.80;;
67979;SDS011;54760;47.490;19.030;2023-04-15T12:16:18;1.65;;;0.95;;
67979;SDS011;54760;47.490;19.030;2023-04-15T12:18:47;1.20;;;0.90;;
67979;SDS011;54760;47.490;19.030;2023-04-15T12:21:20;2.85;;;1.00;;
67979;SDS011;54760;47.490;19.030;2023-04-15T12:23:54;1.48;;;0.93;;
67979;SDS011;54760;47.490;19.030;2023-04-15T12:26:28;1.60;;;1.08;;
67979;SDS011;54760;47.490;19.030;2023-04-15T12:29:02;1.70;;;1.12;;
67979;SDS011;54760;47.490;19.030;2023-04-15T12:31:35;1.92;;;1.00;;
67979;SDS011;54760;47.490;19.030;2023-04-15T12:34:01;1.05;;;0.90;;
67979;SDS011;54760;47.490;19.030;2023-04-15T12:36:27;1.37;;;0.95;;
67979;SDS011;54760;47.490;19.030;2023-04-15T12:38:55;2.45;;;1.00;;
67979;SDS011;54760;47.490;19.030;2023-04-15T12:41:21;1.25;;;0.80;;
67979;SDS011;54760;47.490;19.030;2023-04-15T12:43:48;1.20;;;0.90;;
67979;SDS011;54760;47.490;19.030;2023-04-15T12:46:14;1.40;;;1.10;;
67979;SDS011;54760;47.490;19.030;2023-04-15T12:48:40;1.50;;;1.10;;
67979;SDS011;54760;47.490;19.030;2023-04-15T12:51:06;3.20;;;1.00;;
67979;SDS011;54760;47.490;19.030;2023-04-15T12:53:31;2.20;;;1.10;;
67979;SDS011;54760;47.490;19.030;2023-04-15T12:55:56;2.03;;;1.10;;
67979;SDS011;54760;47.490;19.030;2023-04-15T12:58:22;3.08;;;1.10;;
67979;SDS011;54760;47.490;19.030;2023-04-15T13:00:47;1.85;;;1.08;;
67979;SDS011;54760;47.490;19.030;2023-04-15T13:03:14;1.80;;;1.20;;
67979;SDS011;54760;47.490;19.030;2023-04-15T13:05:39;1.50;;;1.10;;
67979;SDS011;54760;47.490;19.030;2023-04-15T13:08:05;1.83;;;1.20;;
67979;SDS011;54760;47.490;19.030;2023-04-15T13:10:31;1.83;;;1.10;;
67979;SDS011;54760;47.490;19.030;2023-04-15T13:12:56;3.28;;;1.02;;
67979;SDS011;54760;47.490;19.030;2023-04-15T13:15:22;1.98;;;1.08;;
67979;SDS011;54760;47.490;19.030;2023-04-15T13:17:48;1.58;;;0.90;;
67979;SDS011;54760;47.490;19.030;2023-04-15T13:20:14;1.35;;;0.93;;
67979;SDS011;54760;47.490;19.030;2023-04-15T13:22:40;3.15;;;1.12;;
67979;SDS011;54760;47.490;19.030;2023-04-15T13:25:06;1.50;;;1.10;;
67979;SDS011;54760;47.490;19.030;2023-04-15T13:27:32;2.72;;;1.08;;
67979;SDS011;54760;47.490;19.030;2023-04-15T13:29:57;1.35;;;1.10;;
67979;SDS011;54760;47.490;19.030;2023-04-15T13:32:24;1.62;;;1.17;;
67979;SDS011;54760;47.490;19.030;2023-04-15T13:34:50;1.55;;;1.10;;
67979;SDS011;54760;47.490;19.030;2023-04-15T13:37:15;1.90;;;1.30;;
67979;SDS011;54760;47.490;19.030;2023-04-15T13:39:41;3.33;;;1.30;;
67979;SDS011;54760;47.490;19.030;2023-04-15T13:42:06;2.00;;;1.10;;
67979;SDS011;54760;47.490;19.030;2023-04-15T13:44:32;1.50;;;1.10;;
67979;SDS011;54760;47.490;19.030;2023-04-15T13:46:57;1.92;;;0.93;;
67979;SDS011;54760;47.490;19.030;2023-04-15T13:49:23;1.62;;;1.05;;
67979;SDS011;54760;47.490;19.030;2023-04-15T13:51:49;2.05;;;1.33;;
67979;SDS011;54760;47.490;19.030;2023-04-15T13:54:15;2.15;;;1.30;;
67979;SDS011;54760;47.490;19.030;2023-04-15T13:56:40;1.90;;;1.12;;
67979;SDS011;54760;47.490;19.030;2023-04-15T13:59:06;4.12;;;1.33;;
67979;SDS011;54760;47.490;19.030;2023-04-15T14:01:33;2.17;;;1.15;;
67979;SDS011;54760;47.490;19.030;2023-04-15T14:03:59;1.95;;;1.30;;
67979;SDS011;54760;47.490;19.030;2023-04-15T14:06:24;2.40;;;1.48;;
67979;SDS011;54760;47.490;19.030;2023-04-15T14:08:51;2.45;;;1.52;;
67979;SDS011;54760;47.490;19.030;2023-04-15T14:11:17;2.35;;;1.50;;
67979;SDS011;54760;47.490;19.030;2023-04-15T14:13:42;2.62;;;1.65;;
67979;SDS011;54760;47.490;19.030;2023-04-15T14:16:08;2.12;;;1.35;;
67979;SDS011;54760;47.490;19.030;2023-04-15T14:18:33;2.00;;;1.20;;
67979;SDS011;54760;47.490;19.030;2023-04-15T14:20:59;1.80;;;1.17;;
67979;SDS011;54760;47.490;19.030;2023-04-15T14:23:24;2.95;;;1.33;;
67979;SDS011;54760;47.490;19.030;2023-04-15T14:25:50;1.62;;;1.30;;
67979;SDS011;54760;47.490;19.030;2023-04-15T14:28:16;2.20;;;1.27;;
67979;SDS011;54760;47.490;19.030;2023-04-15T14:30:41;1.90;;;1.30;;
67979;SDS011;54760;47.490;19.030;2023-04-15T14:33:07;2.92;;;1.02;;
67979;SDS011;54760;47.490;19.030;2023-04-15T14:35:32;2.60;;;1.05;;
67979;SDS011;54760;47.490;19.030;2023-04-15T14:37:57;1.30;;;0.88;;
67979;SDS011;54760;47.490;19.030;2023-04-15T14:40:23;3.78;;;1.55;;
67979;SDS011;54760;47.490;19.030;2023-04-15T14:42:48;3.33;;;2.33;;
67979;SDS011;54760;47.490;19.030;2023-04-15T14:45:14;4.90;;;2.37;;
67979;SDS011;54760;47.490;19.030;2023-04-15T14:47:40;4.03;;;3.00;;
67979;SDS011;54760;47.490;19.030;2023-04-15T14:50:05;4.40;;;2.80;;
67979;SDS011;54760;47.490;19.030;2023-04-15T14:52:31;4.18;;;2.60;;